createdAt,value
2023-05-05T00:01:15.667Z,101539.84
2023-05-05T00:03:42.638Z,101534.34
2023-05-05T00:06:09.507Z,101537.97
2023-05-05T00:08:36.065Z,101534.41
2023-05-05T00:11:02.752Z,101531.72
2023-05-05T00:13:29.348Z,101545.16
2023-05-05T00:15:55.983Z,101540.72
2023-05-05T00:18:22.665Z,101542.72
2023-05-05T00:20:49.337Z,101544.41
2023-05-05T00:23:16.436Z,101533.03
2023-05-05T00:25:44.469Z,101530.41
2023-05-05T00:28:11.174Z,101528.66
2023-05-05T00:30:39.849Z,101530.66
2023-05-05T00:33:06.753Z,101522.63
2023-05-05T00:35:34.327Z,101520.97
2023-05-05T00:38:01.132Z,101518.34
2023-05-05T00:40:27.735Z,101515.72
2023-05-05T00:42:54.302Z,101521.28
2023-05-05T00:45:23.900Z,101532.94
2023-05-05T00:47:58.762Z,101542.91
2023-05-05T00:50:30.978Z,101549.22
2023-05-05T00:53:06.476Z,101554.63
2023-05-05T00:55:34.916Z,101551.97
2023-05-05T00:58:03.915Z,101543.97
2023-05-05T01:00:30.670Z,101544.84
2023-05-05T01:02:57.567Z,101540.47
2023-05-05T01:05:27.678Z,101532.38
2023-05-05T01:08:32.331Z,101534.34
2023-05-05T01:11:07.753Z,101526.41
2023-05-05T01:13:49.851Z,101529.97
2023-05-05T01:16:16.328Z,101522.94
2023-05-05T01:18:58.255Z,101532.72
2023-05-05T01:21:31.298Z,101534.53
2023-05-05T01:24:19.380Z,101538.09
2023-05-05T01:26:59.556Z,101536.19
2023-05-05T01:30:17.495Z,101546.84
2023-05-05T01:32:51.790Z,101543.16
2023-05-05T01:35:24.276Z,101556.38
2023-05-05T01:38:00.390Z,101559.72
2023-05-05T01:40:33.483Z,101556.84
2023-05-05T01:43:04.646Z,101555.16
2023-05-05T01:45:37.829Z,101550.47
2023-05-05T01:48:08.508Z,101552.00
2023-05-05T01:50:37.156Z,101559.00
2023-05-05T01:53:06.277Z,101565.31
2023-05-05T01:55:35.604Z,101564.22
2023-05-05T01:58:04.271Z,101583.69
2023-05-05T02:00:33.024Z,101587.09
2023-05-05T02:03:04.378Z,101585.06
2023-05-05T02:05:33.715Z,101586.81
2023-05-05T02:08:05.660Z,101580.22
2023-05-05T02:10:32.928Z,101569.41
2023-05-05T02:13:04.162Z,101547.00
2023-05-05T02:15:33.538Z,101536.13
2023-05-05T02:18:05.632Z,101529.81
2023-05-05T02:20:33.285Z,101520.00
2023-05-05T02:23:00.416Z,101531.69
2023-05-05T02:25:36.937Z,101547.06
2023-05-05T02:28:07.342Z,101562.38
2023-05-05T02:30:37.786Z,101558.91
2023-05-05T02:33:11.267Z,101547.28
2023-05-05T02:35:41.257Z,101544.72
2023-05-05T02:38:17.124Z,101554.59
2023-05-05T02:40:47.495Z,101552.91
2023-05-05T02:43:19.546Z,101551.41
2023-05-05T02:45:46.363Z,101554.22
2023-05-05T02:48:13.220Z,101550.88
2023-05-05T02:50:42.238Z,101552.06
2023-05-05T02:53:09.038Z,101544.31
2023-05-05T02:55:44.292Z,101545.44
2023-05-05T02:58:37.185Z,101549.41
2023-05-05T03:01:25.466Z,101547.09
2023-05-05T03:04:30.472Z,101546.50
2023-05-05T03:06:59.693Z,101550.56
2023-05-05T03:09:36.765Z,101549.81
2023-05-05T03:12:08.198Z,101557.16
2023-05-05T03:14:41.814Z,101559.31
2023-05-05T03:17:12.145Z,101560.44
2023-05-05T03:19:43.533Z,101565.97
2023-05-05T03:22:11.133Z,101569.72
2023-05-05T03:24:37.697Z,101567.22
2023-05-05T03:27:04.272Z,101571.03
2023-05-05T03:29:30.986Z,101577.63
2023-05-05T03:31:58.801Z,101583.03
2023-05-05T03:34:26.353Z,101591.22
2023-05-05T03:36:52.878Z,101588.03
2023-05-05T03:39:19.440Z,101581.66
2023-05-05T03:41:45.951Z,101569.44
2023-05-05T03:44:12.759Z,101556.06
2023-05-05T03:46:39.289Z,101570.44
2023-05-05T03:49:05.775Z,101576.88
2023-05-05T03:51:32.529Z,101586.63
2023-05-05T03:53:59.102Z,101577.91
2023-05-05T03:56:25.650Z,101593.22
2023-05-05T03:58:52.498Z,101614.78
2023-05-05T04:01:18.990Z,101613.91
2023-05-05T04:03:46.078Z,101607.69
2023-05-05T04:06:12.792Z,101607.72
2023-05-05T04:08:39.302Z,101624.78
2023-05-05T04:11:05.798Z,101631.94
2023-05-05T04:13:32.369Z,101632.00
2023-05-05T04:16:00.179Z,101633.78
2023-05-05T04:18:27.027Z,101641.88
2023-05-05T04:20:53.607Z,101639.25
2023-05-05T04:23:20.165Z,101641.00
2023-05-05T04:25:47.310Z,101639.47
2023-05-05T04:28:13.890Z,101649.19
2023-05-05T04:30:40.688Z,101648.31
2023-05-05T04:33:08.689Z,101655.47
2023-05-05T04:35:35.332Z,101658.16
2023-05-05T04:38:02.922Z,101660.00
2023-05-05T04:40:29.574Z,101663.56
2023-05-05T04:42:56.132Z,101671.53
2023-05-05T04:45:22.758Z,101665.31
2023-05-05T04:47:49.624Z,101667.22
2023-05-05T04:50:16.579Z,101665.34
2023-05-05T04:52:43.125Z,101668.84
2023-05-05T04:55:11.718Z,101671.53
2023-05-05T04:57:38.404Z,101673.34
2023-05-05T05:00:06.555Z,101675.97
2023-05-05T05:02:33.337Z,101675.91
2023-05-05T05:04:59.969Z,101678.63
2023-05-05T05:07:26.717Z,101675.97
2023-05-05T05:09:53.400Z,101691.16
2023-05-05T05:12:20.022Z,101692.91
2023-05-05T05:14:46.584Z,101691.94
2023-05-05T05:17:13.115Z,101686.53
2023-05-05T05:19:39.697Z,101683.84
2023-05-05T05:22:06.262Z,101685.44
2023-05-05T05:24:34.659Z,101693.38
2023-05-05T05:27:01.305Z,101693.38
2023-05-05T05:29:27.839Z,101700.41
2023-05-05T05:31:54.513Z,101694.16
2023-05-05T05:34:21.155Z,101697.63
2023-05-05T05:36:47.692Z,101694.84
2023-05-05T05:39:14.253Z,101699.13
2023-05-05T05:41:40.792Z,101697.22
2023-05-05T05:44:07.364Z,101706.97
2023-05-05T05:46:34.006Z,101712.06
2023-05-05T05:49:00.679Z,101719.19
2023-05-05T05:51:27.817Z,101715.38
2023-05-05T05:53:55.101Z,101716.09
2023-05-05T05:56:22.889Z,101716.75
2023-05-05T05:58:49.391Z,101719.25
2023-05-05T06:01:16.019Z,101714.59
2023-05-05T06:03:42.724Z,101708.06
2023-05-05T06:06:09.355Z,101703.47
2023-05-05T06:08:37.169Z,101711.25
2023-05-05T06:11:03.688Z,101704.75
2023-05-05T06:13:30.472Z,101709.25
2023-05-05T06:15:59.892Z,101697.34
2023-05-05T06:18:26.510Z,101693.88
2023-05-05T06:20:53.155Z,101691.34
2023-05-05T06:23:19.756Z,101688.31
2023-05-05T06:25:46.679Z,101699.84
2023-05-05T06:28:13.260Z,101689.47
2023-05-05T06:30:39.867Z,101692.31
2023-05-05T06:33:06.468Z,101705.66
2023-05-05T06:35:34.097Z,101708.09
2023-05-05T06:38:00.777Z,101703.25
2023-05-05T06:40:27.320Z,101703.97
2023-05-05T06:42:53.937Z,101702.31
2023-05-05T06:45:20.518Z,101707.31
2023-05-05T06:47:47.115Z,101711.91
2023-05-05T06:50:13.693Z,101716.13
2023-05-05T06:52:41.100Z,101708.63
2023-05-05T06:55:08.038Z,101722.75
2023-05-05T06:57:34.582Z,101721.88
2023-05-05T07:00:01.298Z,101715.69
2023-05-05T07:02:27.910Z,101719.72
2023-05-05T07:04:55.463Z,101713.91
2023-05-05T07:07:22.481Z,101722.47
2023-05-05T07:09:49.061Z,101723.91
2023-05-05T07:12:15.782Z,101724.75
2023-05-05T07:14:42.338Z,101727.06
2023-05-05T07:17:08.830Z,101721.53
2023-05-05T07:19:35.320Z,101719.63
2023-05-05T07:22:04.572Z,101717.66
2023-05-05T07:24:31.114Z,101719.97
2023-05-05T07:26:57.830Z,101722.81
2023-05-05T07:29:24.384Z,101730.19
2023-05-05T07:31:51.980Z,101727.84
2023-05-05T07:34:18.501Z,101726.19
2023-05-05T07:36:45.052Z,101729.72
2023-05-05T07:39:14.884Z,101731.34
2023-05-05T07:41:42.314Z,101733.44
2023-05-05T07:44:08.919Z,101721.28
2023-05-05T07:46:35.528Z,101724.16
2023-05-05T07:49:02.134Z,101719.06
2023-05-05T07:51:28.729Z,101724.66
2023-05-05T07:53:55.922Z,101725.63
2023-05-05T07:56:22.529Z,101731.78
2023-05-05T07:58:49.066Z,101728.09
2023-05-05T08:01:15.941Z,101723.69
2023-05-05T08:03:42.725Z,101722.31
2023-05-05T08:06:10.327Z,101730.91
2023-05-05T08:08:37.134Z,101724.84
2023-05-05T08:11:06.269Z,101724.94
2023-05-05T08:13:34.511Z,101731.69
2023-05-05T08:16:01.225Z,101734.56
2023-05-05T08:18:29.325Z,101734.19
2023-05-05T08:20:55.925Z,101731.84
2023-05-05T08:23:22.520Z,101730.00
2023-05-05T08:25:49.723Z,101737.19
2023-05-05T08:28:16.205Z,101730.00
2023-05-05T08:30:42.877Z,101727.00
2023-05-05T08:33:09.507Z,101725.38
2023-05-05T08:35:36.151Z,101722.31
2023-05-05T08:38:02.821Z,101732.03
2023-05-05T08:40:34.949Z,101736.06
2023-05-05T08:43:01.684Z,101741.41
2023-05-05T08:45:29.219Z,101747.09
2023-05-05T08:48:05.145Z,101751.16
2023-05-05T08:50:33.074Z,101746.00
2023-05-05T08:53:47.015Z,101748.91
2023-05-05T08:56:15.576Z,101745.78
2023-05-05T08:58:43.191Z,101755.50
2023-05-05T09:01:11.478Z,101759.47
2023-05-05T09:03:39.030Z,101756.75
2023-05-05T09:06:07.300Z,101762.00
2023-05-05T09:08:34.146Z,101757.25
2023-05-05T09:11:02.042Z,101763.84
2023-05-05T09:13:30.034Z,101749.31
2023-05-05T09:15:57.226Z,101749.31
2023-05-05T09:18:23.782Z,101752.16
2023-05-05T09:20:50.401Z,101757.44
2023-05-05T09:23:20.805Z,101749.19
2023-05-05T09:26:07.965Z,101755.44
2023-05-05T09:28:34.492Z,101750.34
2023-05-05T09:31:15.953Z,101748.81
2023-05-05T09:33:43.409Z,101755.13
2023-05-05T09:36:10.075Z,101761.41
2023-05-05T09:38:36.825Z,101757.81
2023-05-05T09:41:05.273Z,101751.53
2023-05-05T09:43:50.147Z,101756.06
2023-05-05T09:46:16.818Z,101755.88
2023-05-05T09:48:43.450Z,101753.31
2023-05-05T09:51:10.094Z,101743.59
2023-05-05T09:53:41.743Z,101740.97
2023-05-05T09:56:08.751Z,101743.97
2023-05-05T09:58:35.648Z,101738.88
2023-05-05T10:01:02.246Z,101746.69
2023-05-05T10:03:28.862Z,101747.97
2023-05-05T10:05:57.574Z,101750.88
2023-05-05T10:08:27.196Z,101744.59
2023-05-05T10:10:56.528Z,101750.31
2023-05-05T10:13:24.612Z,101767.75
2023-05-05T10:15:57.189Z,101785.06
2023-05-05T10:18:27.159Z,101802.91
2023-05-05T10:21:02.262Z,101815.31
2023-05-05T10:23:49.662Z,101804.75
2023-05-05T10:26:22.224Z,101800.84
2023-05-05T10:28:56.045Z,101796.81
2023-05-05T10:31:58.539Z,101802.66
2023-05-05T10:34:38.496Z,101789.97
2023-05-05T10:37:06.763Z,101800.81
2023-05-05T10:39:36.192Z,101788.63
2023-05-05T10:42:05.271Z,101788.16
2023-05-05T10:44:33.154Z,101786.56
2023-05-05T10:47:01.801Z,101792.97
2023-05-05T10:49:40.600Z,101794.78
2023-05-05T10:52:52.457Z,101810.47
2023-05-05T10:55:37.617Z,101801.38
2023-05-05T10:58:04.218Z,101802.56
2023-05-05T11:00:39.662Z,101806.41
2023-05-05T11:03:18.400Z,101821.13
2023-05-05T11:06:03.573Z,101836.09
2023-05-05T11:08:38.393Z,101841.03
2023-05-05T11:11:05.616Z,101835.28
2023-05-05T11:13:32.316Z,101830.09
2023-05-05T11:16:02.128Z,101825.94
2023-05-05T11:18:44.398Z,101826.81
2023-05-05T11:21:17.008Z,101827.31
2023-05-05T11:23:51.624Z,101840.00
2023-05-05T11:26:53.765Z,101823.94
2023-05-05T11:29:20.749Z,101816.63
2023-05-05T11:32:10.443Z,101824.88
2023-05-05T11:34:49.404Z,101833.53
2023-05-05T11:37:17.091Z,101840.84
2023-05-05T11:40:10.115Z,101847.69
2023-05-05T11:42:36.942Z,101849.72
2023-05-05T11:45:23.044Z,101844.59
2023-05-05T11:47:50.026Z,101840.16
2023-05-05T11:50:19.173Z,101842.13
2023-05-05T11:52:45.821Z,101847.81
2023-05-05T11:55:12.659Z,101844.66
2023-05-05T11:57:39.321Z,101842.13
2023-05-05T12:00:10.721Z,101843.22
2023-05-05T12:02:37.734Z,101850.47
2023-05-05T12:05:04.971Z,101839.88
2023-05-05T12:07:33.919Z,101836.22
2023-05-05T12:10:02.008Z,101839.13
2023-05-05T12:12:40.655Z,101830.13
2023-05-05T12:15:10.162Z,101829.50
2023-05-05T12:17:48.001Z,101835.13
2023-05-05T12:20:14.647Z,101828.88
2023-05-05T12:22:45.119Z,101827.75
2023-05-05T12:25:11.677Z,101836.78
2023-05-05T12:27:38.775Z,101836.69
2023-05-05T12:30:15.913Z,101837.66
2023-05-05T12:32:43.091Z,101832.28
2023-05-05T12:35:10.605Z,101830.44
2023-05-05T12:37:38.506Z,101827.03
2023-05-05T12:40:06.459Z,101825.22
2023-05-05T12:42:38.897Z,101828.28
2023-05-05T12:45:07.030Z,101833.38
2023-05-05T12:47:33.899Z,101828.34
2023-05-05T12:50:02.878Z,101822.75
2023-05-05T12:52:44.301Z,101816.41
2023-05-05T12:55:11.628Z,101827.84
2023-05-05T12:57:39.627Z,101832.28
2023-05-05T13:00:14.825Z,101819.63
2023-05-05T13:02:41.534Z,101820.56
2023-05-05T13:05:08.677Z,101823.19
2023-05-05T13:07:35.401Z,101827.69
2023-05-05T13:10:10.516Z,101816.69
2023-05-05T13:12:37.588Z,101813.13
2023-05-05T13:15:06.628Z,101819.44
2023-05-05T13:17:34.800Z,101814.47
2023-05-05T13:20:01.487Z,101821.66
2023-05-05T13:22:27.977Z,101828.84
2023-05-05T13:24:54.468Z,101819.97
2023-05-05T13:27:21.194Z,101822.75
2023-05-05T13:29:48.078Z,101831.16
2023-05-05T13:32:14.811Z,101830.28
2023-05-05T13:34:42.507Z,101842.03
2023-05-05T13:37:09.162Z,101839.34
2023-05-05T13:39:36.819Z,101843.81
2023-05-05T13:42:03.351Z,101849.53
2023-05-05T13:44:29.905Z,101850.41
2023-05-05T13:46:56.496Z,101855.00
2023-05-05T13:49:23.716Z,101851.78
2023-05-05T13:51:50.693Z,101855.44
2023-05-05T13:54:17.268Z,101852.97
2023-05-05T13:56:43.963Z,101847.66
2023-05-05T13:59:10.597Z,101854.00
2023-05-05T14:01:37.454Z,101846.91
2023-05-05T14:04:05.687Z,101846.06
2023-05-05T14:06:33.475Z,101847.72
2023-05-05T14:09:01.177Z,101843.34
2023-05-05T14:11:27.784Z,101842.50
2023-05-05T14:13:54.779Z,101839.16
2023-05-05T14:16:21.404Z,101831.94
2023-05-05T14:18:48.115Z,101826.84
2023-05-05T14:21:14.637Z,101816.31
2023-05-05T14:23:41.233Z,101814.59
2023-05-05T14:26:08.982Z,101806.50
2023-05-05T14:28:35.920Z,101802.81
2023-05-05T14:31:02.445Z,101794.56
2023-05-05T14:33:28.947Z,101803.44
2023-05-05T14:35:55.686Z,101800.75
2023-05-05T14:38:22.336Z,101781.97
2023-05-05T14:40:48.938Z,101773.03
2023-05-05T14:43:15.588Z,101776.81
2023-05-05T14:45:42.318Z,101768.00
2023-05-05T14:48:09.063Z,101752.00
2023-05-05T14:50:36.934Z,101753.94
2023-05-05T14:53:03.568Z,101752.94
2023-05-05T14:55:30.152Z,101771.44
2023-05-05T14:57:56.676Z,101787.41
2023-05-05T15:00:23.345Z,101791.59
2023-05-05T15:02:49.961Z,101803.50
2023-05-05T15:05:16.644Z,101791.59
2023-05-05T15:07:43.231Z,101789.44
2023-05-05T15:10:10.520Z,101793.13
2023-05-05T15:12:37.117Z,101794.28
2023-05-05T15:15:04.503Z,101797.03
2023-05-05T15:17:31.782Z,101798.19
2023-05-05T15:19:58.431Z,101793.91
2023-05-05T15:22:24.985Z,101789.69
2023-05-05T15:24:51.534Z,101778.09
2023-05-05T15:27:18.515Z,101787.22
2023-05-05T15:29:45.269Z,101775.34
2023-05-05T15:32:11.963Z,101776.09
2023-05-05T15:34:38.558Z,101773.28
2023-05-05T15:37:05.718Z,101778.63
2023-05-05T15:39:38.596Z,101766.91
2023-05-05T15:42:05.601Z,101761.34
2023-05-05T15:44:32.169Z,101759.38
2023-05-05T15:46:58.835Z,101762.78
2023-05-05T15:49:25.440Z,101756.53
2023-05-05T15:51:52.184Z,101760.31
2023-05-05T15:54:18.741Z,101760.47
2023-05-05T15:56:45.332Z,101756.97
2023-05-05T15:59:11.929Z,101755.22
2023-05-05T16:01:38.688Z,101756.84
2023-05-05T16:04:05.519Z,101759.66
2023-05-05T16:06:32.090Z,101753.41
2023-05-05T16:08:58.711Z,101758.66
2023-05-05T16:11:26.516Z,101753.25
2023-05-05T16:13:53.372Z,101759.44
2023-05-05T16:16:22.240Z,101750.28
2023-05-05T16:18:48.860Z,101755.59
2023-05-05T16:21:15.513Z,101751.09
2023-05-05T16:23:42.145Z,101755.28
2023-05-05T16:26:08.813Z,101754.88
2023-05-05T16:28:35.587Z,101756.34
2023-05-05T16:31:02.419Z,101744.84
2023-05-05T16:33:29.381Z,101739.44
2023-05-05T16:35:56.136Z,101742.22
2023-05-05T16:38:23.044Z,101735.94
2023-05-05T16:40:49.626Z,101737.16
2023-05-05T16:43:16.438Z,101743.31
2023-05-05T16:45:43.453Z,101744.31
2023-05-05T16:48:10.031Z,101734.41
2023-05-05T16:50:36.621Z,101739.00
2023-05-05T16:53:03.730Z,101735.44
2023-05-05T16:55:30.812Z,101736.28
2023-05-05T16:57:57.374Z,101734.78
2023-05-05T17:00:23.907Z,101741.16
2023-05-05T17:02:50.484Z,101741.03
2023-05-05T17:05:17.855Z,101745.59
2023-05-05T17:07:51.713Z,101749.28
2023-05-05T17:10:18.425Z,101743.91
2023-05-05T17:12:45.067Z,101741.22
2023-05-05T17:15:11.899Z,101744.78
2023-05-05T17:17:38.792Z,101750.22
2023-05-05T17:20:06.880Z,101740.47
2023-05-05T17:22:33.449Z,101750.34
2023-05-05T17:24:59.971Z,101754.78
2023-05-05T17:27:26.621Z,101752.97
2023-05-05T17:29:53.626Z,101750.44
2023-05-05T17:32:20.522Z,101750.34
2023-05-05T17:34:47.433Z,101756.47
2023-05-05T17:37:14.038Z,101748.47
2023-05-05T17:39:40.550Z,101741.34
2023-05-05T17:42:07.195Z,101743.16
2023-05-05T17:44:33.736Z,101749.50
2023-05-05T17:47:00.378Z,101748.75
2023-05-05T17:49:26.880Z,101751.50
2023-05-05T17:51:56.038Z,101754.28
2023-05-05T17:54:22.533Z,101755.16
2023-05-05T17:56:49.124Z,101755.38
2023-05-05T17:59:15.628Z,101763.59
2023-05-05T18:01:47.281Z,101763.81
2023-05-05T18:04:13.835Z,101765.69
2023-05-05T18:06:40.663Z,101762.25
2023-05-05T18:09:07.793Z,101765.91
2023-05-05T18:11:35.875Z,101768.81
2023-05-05T18:14:03.596Z,101769.75
2023-05-05T18:16:30.989Z,101774.34
2023-05-05T18:18:57.498Z,101769.91
2023-05-05T18:21:24.135Z,101769.25
2023-05-05T18:23:57.252Z,101767.50
2023-05-05T18:26:28.386Z,101768.53
2023-05-05T18:28:54.930Z,101764.16
2023-05-05T18:31:21.726Z,101763.44
2023-05-05T18:33:48.377Z,101768.88
2023-05-05T18:36:15.257Z,101770.84
2023-05-05T18:38:41.825Z,101774.63
2023-05-05T18:41:08.347Z,101785.50
2023-05-05T18:43:34.915Z,101775.09
2023-05-05T18:46:01.439Z,101785.19
2023-05-05T18:48:27.988Z,101785.41
2023-05-05T18:50:54.674Z,101782.09
2023-05-05T18:53:21.313Z,101784.16
2023-05-05T18:55:50.848Z,101784.41
2023-05-05T18:58:17.565Z,101786.41
2023-05-05T19:00:45.410Z,101780.38
2023-05-05T19:03:12.016Z,101779.69
2023-05-05T19:05:40.588Z,101786.16
2023-05-05T19:08:07.208Z,101790.00
2023-05-05T19:10:33.764Z,101785.84
2023-05-05T19:13:00.723Z,101795.84
2023-05-05T19:15:27.497Z,101785.34
2023-05-05T19:17:54.691Z,101795.34
2023-05-05T19:20:21.938Z,101797.38
2023-05-05T19:22:48.627Z,101801.22
2023-05-05T19:25:16.286Z,101804.06
2023-05-05T19:27:43.361Z,101803.41
2023-05-05T19:30:10.617Z,101817.88
2023-05-05T19:32:37.237Z,101807.38
2023-05-05T19:35:04.027Z,101817.28
2023-05-05T19:37:31.178Z,101814.88
2023-05-05T19:39:57.684Z,101810.53
2023-05-05T19:42:24.271Z,101829.25
2023-05-05T19:44:51.123Z,101815.22
2023-05-05T19:47:17.949Z,101828.72
2023-05-05T19:49:44.497Z,101818.19
2023-05-05T19:52:11.063Z,101815.63
2023-05-05T19:54:38.141Z,101823.81
2023-05-05T19:57:05.181Z,101826.63
2023-05-05T19:59:31.768Z,101829.38
2023-05-05T20:01:58.338Z,101823.31
2023-05-05T20:04:24.965Z,101826.13
2023-05-05T20:06:53.870Z,101833.34
2023-05-05T20:09:20.413Z,101825.47
2023-05-05T20:11:47.043Z,101834.47
2023-05-05T20:14:13.616Z,101839.09
2023-05-05T20:16:40.971Z,101831.13
2023-05-05T20:19:07.533Z,101830.38
2023-05-05T20:21:34.909Z,101827.88
2023-05-05T20:24:01.752Z,101830.59
2023-05-05T20:26:28.530Z,101832.56
2023-05-05T20:28:55.132Z,101836.19
2023-05-05T20:31:21.808Z,101838.03
2023-05-05T20:33:48.453Z,101843.44
2023-05-05T20:36:15.461Z,101845.25
2023-05-05T20:38:43.383Z,101841.84
2023-05-05T20:41:10.141Z,101848.09
2023-05-05T20:43:37.011Z,101845.47
2023-05-05T20:46:03.641Z,101841.94
2023-05-05T20:48:30.213Z,101844.72
2023-05-05T20:50:58.814Z,101837.66
2023-05-05T20:53:25.529Z,101836.81
2023-05-05T20:55:52.120Z,101828.00
2023-05-05T20:58:18.670Z,101829.00
2023-05-05T21:00:45.315Z,101829.91
2023-05-05T21:03:12.123Z,101829.00
2023-05-05T21:05:40.070Z,101828.19
2023-05-05T21:08:06.856Z,101830.06
2023-05-05T21:10:33.684Z,101824.81
2023-05-05T21:13:02.332Z,101829.31
2023-05-05T21:15:29.150Z,101830.31
2023-05-05T21:17:59.463Z,101823.28
2023-05-05T21:20:26.157Z,101821.66
2023-05-05T21:22:52.780Z,101828.81
2023-05-05T21:25:21.097Z,101829.75
2023-05-05T21:27:48.903Z,101826.22
2023-05-05T21:30:17.695Z,101824.53
2023-05-05T21:32:44.613Z,101824.59
2023-05-05T21:35:11.310Z,101822.84
2023-05-05T21:37:40.184Z,101827.47
2023-05-05T21:40:13.389Z,101825.78
2023-05-05T21:42:41.135Z,101825.84
2023-05-05T21:45:08.332Z,101825.91
2023-05-05T21:47:35.004Z,101832.25
2023-05-05T21:50:02.344Z,101823.47
2023-05-05T21:52:29.054Z,101820.91
2023-05-05T21:54:55.892Z,101822.75
2023-05-05T21:57:22.460Z,101829.03
2023-05-05T21:59:49.457Z,101822.88
2023-05-05T22:02:16.176Z,101823.91
2023-05-05T22:04:42.829Z,101826.63
2023-05-05T22:07:09.325Z,101823.13
2023-05-05T22:09:35.909Z,101817.91
2023-05-05T22:12:02.630Z,101818.84
2023-05-05T22:14:29.227Z,101826.84
2023-05-05T22:16:56.040Z,101818.94
2023-05-05T22:19:22.661Z,101819.03
2023-05-05T22:21:49.177Z,101831.53
2023-05-05T22:24:15.793Z,101827.06
2023-05-05T22:26:43.337Z,101828.88
2023-05-05T22:29:10.973Z,101828.84
2023-05-05T22:31:37.993Z,101830.63
2023-05-05T22:34:04.764Z,101822.63
2023-05-05T22:36:31.470Z,101824.41
2023-05-05T22:38:58.227Z,101819.13
2023-05-05T22:41:24.919Z,101823.56
2023-05-05T22:43:51.500Z,101828.91
2023-05-05T22:46:18.019Z,101820.91
2023-05-05T22:48:44.539Z,101827.13
2023-05-05T22:51:11.303Z,101821.72
2023-05-05T22:53:38.844Z,101818.19
2023-05-05T22:56:06.233Z,101816.38
2023-05-05T22:58:32.757Z,101821.66
2023-05-05T23:00:59.596Z,101818.03
2023-05-05T23:03:26.203Z,101817.97
2023-05-05T23:05:52.831Z,101817.06
2023-05-05T23:08:20.310Z,101810.75
2023-05-05T23:10:46.887Z,101820.44
2023-05-05T23:13:13.475Z,101818.63
2023-05-05T23:15:40.848Z,101815.91
2023-05-05T23:18:07.433Z,101817.63
2023-05-05T23:20:33.982Z,101810.50
2023-05-05T23:23:00.814Z,101809.63
2023-05-05T23:25:27.413Z,101809.63
2023-05-05T23:27:54.081Z,101817.53
2023-05-05T23:30:21.880Z,101812.19
2023-05-05T23:32:48.384Z,101803.31
2023-05-05T23:35:15.168Z,101808.59
2023-05-05T23:37:41.676Z,101806.88
2023-05-05T23:40:08.697Z,101804.22
2023-05-05T23:42:36.208Z,101811.38
2023-05-05T23:45:03.571Z,101806.94
2023-05-05T23:47:30.298Z,101804.28
2023-05-05T23:49:56.826Z,101807.81
2023-05-05T23:52:23.400Z,101802.41
2023-05-05T23:54:49.887Z,101798.84
2023-05-05T23:57:17.386Z,101801.53
2023-05-05T23:59:46.845Z,101798.03
